Time;durP1;ratioP1;P1;durP2;ratioP2;P2;SDS_P1;SDS_P2;PMS_P1;PMS_P2;Temp;Humidity;BMP_temperature;BMP_pressure;BME280_temperature;BME280_humidity;BME280_pressure;Samples;Min_cycle;Max_cycle;Signal;HPM_P1;HPM_P2
2021/03/23 00:01:15;;;;;;;11.25;5.68;;;4.50;66.40;;;;;;5046153;28;20041;-65
2021/03/23 00:03:45;;;;;;;12.00;5.05;;;4.40;66.40;;;;;;5045564;28;20097;-65
2021/03/23 00:06:13;;;;;;;13.75;5.50;;;4.30;67.10;;;;;;5046863;28;20037;-65
2021/03/23 00:08:46;;;;;;;12.32;5.40;;;4.10;67.30;;;;;;5045996;28;20052;-65
2021/03/23 00:11:25;;;;;;;9.70;5.13;;;4.10;67.20;;;;;;5044550;28;20037;-65
2021/03/23 00:13:50;;;;;;;12.05;5.50;;;4.20;67.20;;;;;;5044599;28;20337;-65
2021/03/23 00:16:17;;;;;;;14.98;5.22;;;4.10;67.30;;;;;;5044536;28;20030;-65
2021/03/23 00:18:43;;;;;;;11.63;5.72;;;4.10;67.10;;;;;;5044591;28;20101;-65
2021/03/23 00:21:09;;;;;;;13.82;5.10;;;4.00;67.50;;;;;;5047050;28;20213;-65
2021/03/23 00:23:35;;;;;;;15.18;5.63;;;3.90;67.50;;;;;;5044139;28;20104;-65
2021/03/23 00:26:00;;;;;;;12.02;5.25;;;3.70;67.90;;;;;;5045617;28;20056;-65
2021/03/23 00:28:26;;;;;;;13.38;5.60;;;3.90;68.00;;;;;;5045323;28;20038;-65
2021/03/23 00:30:52;;;;;;;16.10;5.85;;;3.60;68.50;;;;;;5045391;28;20057;-65
2021/03/23 00:33:18;;;;;;;13.55;5.97;;;3.60;68.40;;;;;;5045275;28;20277;-65
2021/03/23 00:35:43;;;;;;;11.50;5.50;;;3.70;68.40;;;;;;5047349;28;20040;-65
2021/03/23 00:38:09;;;;;;;12.13;5.47;;;3.60;67.80;;;;;;5044381;28;20087;-65
2021/03/23 00:40:34;;;;;;;13.65;5.40;;;3.60;68.30;;;;;;5044135;28;20037;-65
2021/03/23 00:43:01;;;;;;;15.10;5.38;;;3.40;68.70;;;;;;5037438;28;20109;-65
2021/03/23 00:45:26;;;;;;;13.73;5.80;;;3.30;69.10;;;;;;5025980;28;20033;-65
2021/03/23 00:47:52;;;;;;;12.20;5.28;;;3.20;69.70;;;;;;5045816;28;20040;-65
2021/03/23 00:50:18;;;;;;;12.75;5.60;;;3.40;70.10;;;;;;5045340;28;20049;-65
2021/03/23 00:52:43;;;;;;;11.55;5.75;;;3.20;70.10;;;;;;5044577;28;20268;-65
2021/03/23 00:55:09;;;;;;;12.20;5.40;;;3.20;70.20;;;;;;5044952;28;20136;-65
2021/03/23 00:57:35;;;;;;;11.45;6.50;;;3.30;70.50;;;;;;5043880;28;20036;-65
2021/03/23 01:00:00;;;;;;;10.02;5.40;;;3.30;70.20;;;;;;5045283;28;20033;-65
2021/03/23 01:02:27;;;;;;;15.50;5.93;;;3.30;70.40;;;;;;5044757;28;20056;-65
2021/03/23 01:04:53;;;;;;;13.23;6.47;;;3.20;70.40;;;;;;5045078;28;20321;-65
2021/03/23 01:07:18;;;;;;;10.52;5.28;;;3.20;70.60;;;;;;5044886;28;20044;-65
2021/03/23 01:09:44;;;;;;;17.30;6.18;;;3.20;70.60;;;;;;5044740;28;20325;-65
2021/03/23 01:12:10;;;;;;;14.50;6.32;;;3.20;70.80;;;;;;5046163;28;20055;-65
2021/03/23 01:14:36;;;;;;;15.23;5.72;;;3.40;71.10;;;;;;5045019;28;20045;-65
2021/03/23 01:17:02;;;;;;;12.05;5.93;;;3.40;70.50;;;;;;5044840;28;20048;-65
2021/03/23 01:19:28;;;;;;;13.70;6.32;;;3.40;70.60;;;;;;5044452;28;20298;-65
2021/03/23 01:21:53;;;;;;;12.68;5.90;;;3.40;70.30;;;;;;5044458;28;20092;-65
2021/03/23 01:24:19;;;;;;;10.27;5.65;;;3.40;70.60;;;;;;5044198;28;20332;-65
2021/03/23 01:26:44;;;;;;;13.35;5.88;;;3.40;70.80;;;;;;5046176;28;20049;-65
2021/03/23 01:29:10;;;;;;;13.45;6.28;;;3.40;70.70;;;;;;5044697;28;20092;-65
2021/03/23 01:31:35;;;;;;;12.45;6.20;;;3.40;71.00;;;;;;5044254;28;20240;-65
2021/03/23 01:34:01;;;;;;;11.60;6.20;;;3.30;70.90;;;;;;5044350;28;20037;-65
2021/03/23 01:36:26;;;;;;;13.52;6.53;;;3.30;71.00;;;;;;5044040;28;20048;-65
2021/03/23 01:38:52;;;;;;;12.68;5.88;;;3.40;71.10;;;;;;5045649;28;20038;-65
2021/03/23 01:41:17;;;;;;;13.27;5.75;;;3.30;71.10;;;;;;5043301;28;20052;-65
2021/03/23 01:43:43;;;;;;;11.82;5.57;;;3.30;71.00;;;;;;5043983;28;20045;-65
2021/03/23 01:46:46;;;;;;;12.02;6.07;;;3.40;71.10;;;;;;5036460;28;20079;-65
2021/03/23 01:49:19;;;;;;;14.48;6.38;;;3.40;71.00;;;;;;5032216;28;20380;-65
2021/03/23 01:51:50;;;;;;;13.82;6.82;;;3.50;70.70;;;;;;5042690;28;20029;-64
2021/03/23 01:54:21;;;;;;;16.48;6.10;;;3.40;70.70;;;;;;5026876;28;20313;-65
2021/03/23 01:56:48;;;;;;;12.50;6.45;;;3.40;70.60;;;;;;5044836;28;20084;-65
2021/03/23 01:59:14;;;;;;;13.05;6.22;;;3.30;71.10;;;;;;5043199;28;20224;-65
2021/03/23 02:01:39;;;;;;;14.60;7.45;;;3.40;70.90;;;;;;5042363;28;20040;-65
2021/03/23 02:04:05;;;;;;;13.65;6.63;;;3.40;70.60;;;;;;5041515;28;20045;-65
2021/03/23 02:06:33;;;;;;;13.93;6.35;;;3.40;70.30;;;;;;5043714;28;20029;-64
2021/03/23 02:09:00;;;;;;;12.85;6.57;;;3.30;70.80;;;;;;5044320;28;20025;-65
2021/03/23 02:11:26;;;;;;;14.00;7.30;;;3.30;70.60;;;;;;5043654;28;20240;-65
2021/03/23 02:13:52;;;;;;;12.13;6.10;;;3.20;71.00;;;;;;5025910;28;20040;-65
2021/03/23 02:16:17;;;;;;;15.02;6.18;;;3.30;71.00;;;;;;5025834;28;20041;-65
2021/03/23 02:18:43;;;;;;;14.38;6.07;;;3.20;71.00;;;;;;5043187;28;20089;-65
2021/03/23 02:21:09;;;;;;;14.32;6.57;;;3.10;70.90;;;;;;5044804;28;20029;-65
2021/03/23 02:23:37;;;;;;;14.65;7.35;;;3.10;71.00;;;;;;5043348;28;20038;-64
2021/03/23 02:26:04;;;;;;;16.70;6.82;;;3.20;70.80;;;;;;5043088;28;20336;-65
2021/03/23 02:28:29;;;;;;;14.43;6.03;;;3.10;71.10;;;;;;5042065;28;20233;-65
2021/03/23 02:30:55;;;;;;;14.40;6.28;;;3.00;71.20;;;;;;5042904;28;20029;-65
2021/03/23 02:33:21;;;;;;;18.65;7.15;;;3.10;70.80;;;;;;5042244;28;20056;-65
2021/03/23 02:35:46;;;;;;;14.70;7.38;;;3.00;71.20;;;;;;5044854;28;20030;-65
2021/03/23 02:38:12;;;;;;;15.15;7.13;;;3.20;71.20;;;;;;5043268;28;20048;-65
2021/03/23 02:40:40;;;;;;;16.52;7.30;;;3.20;70.80;;;;;;5043138;28;20348;-65
2021/03/23 02:43:05;;;;;;;16.98;7.90;;;3.20;70.80;;;;;;5042879;28;20100;-65
2021/03/23 02:45:31;;;;;;;17.42;7.60;;;3.20;70.90;;;;;;5040820;28;20033;-65
2021/03/23 02:47:56;;;;;;;14.98;7.57;;;3.10;71.30;;;;;;5025183;28;20248;-65
2021/03/23 02:50:22;;;;;;;16.73;8.07;;;3.20;71.40;;;;;;5041262;28;20072;-65
2021/03/23 02:52:47;;;;;;;16.27;7.32;;;3.00;71.20;;;;;;5042689;28;20230;-65
2021/03/23 02:55:13;;;;;;;16.63;7.57;;;3.20;71.20;;;;;;5042555;28;20044;-64
2021/03/23 02:57:39;;;;;;;17.90;7.20;;;3.10;71.30;;;;;;5041687;28;20092;-65
2021/03/23 03:00:10;;;;;;;15.25;6.88;;;3.00;71.30;;;;;;5044486;28;20029;-65
2021/03/23 03:02:35;;;;;;;15.02;7.53;;;2.90;71.70;;;;;;5042697;28;20053;-65
2021/03/23 03:05:01;;;;;;;17.58;6.85;;;2.90;71.90;;;;;;5028135;28;20041;-65
2021/03/23 03:07:26;;;;;;;19.67;7.28;;;2.80;71.70;;;;;;5032715;28;20072;-65
2021/03/23 03:09:52;;;;;;;15.80;6.90;;;2.80;71.80;;;;;;5042930;28;20037;-65
2021/03/23 03:12:17;;;;;;;15.88;7.00;;;2.80;72.10;;;;;;5042682;28;20131;-65
2021/03/23 03:14:43;;;;;;;12.07;6.85;;;2.80;71.80;;;;;;5044108;28;20033;-65
2021/03/23 03:17:08;;;;;;;16.00;7.13;;;2.80;72.20;;;;;;5042839;28;20204;-65
2021/03/23 03:19:34;;;;;;;14.65;7.72;;;2.70;72.10;;;;;;5042542;28;20036;-65
2021/03/23 03:21:59;;;;;;;19.90;7.32;;;2.60;72.30;;;;;;5042371;28;20033;-65
2021/03/23 03:24:25;;;;;;;13.93;6.80;;;2.70;72.50;;;;;;5042226;28;20037;-65
2021/03/23 03:26:50;;;;;;;17.35;6.95;;;2.60;72.90;;;;;;5044201;28;20340;-65
2021/03/23 03:29:16;;;;;;;16.52;6.90;;;2.80;72.60;;;;;;5042443;28;20033;-64
2021/03/23 03:31:41;;;;;;;14.80;7.53;;;2.90;72.30;;;;;;5042500;28;20079;-65
2021/03/23 03:34:07;;;;;;;16.10;7.60;;;2.80;72.80;;;;;;5042277;28;20038;-65
2021/03/23 03:36:33;;;;;;;14.45;7.40;;;2.70;72.90;;;;;;5042153;28;20079;-65
2021/03/23 03:38:58;;;;;;;17.20;8.18;;;2.70;73.20;;;;;;5043841;28;20270;-65
2021/03/23 03:41:24;;;;;;;17.88;8.05;;;2.70;73.20;;;;;;5042700;28;20061;-65
2021/03/23 03:43:49;;;;;;;20.75;8.25;;;2.80;73.30;;;;;;5040851;28;20037;-65
2021/03/23 03:46:15;;;;;;;19.15;8.35;;;2.80;73.20;;;;;;5042080;28;20089;-65
2021/03/23 03:48:40;;;;;;;18.40;8.05;;;2.80;73.10;;;;;;5040944;28;20033;-65
2021/03/23 03:51:06;;;;;;;18.00;8.20;;;2.90;72.90;;;;;;5044007;28;20053;-65
2021/03/23 03:53:32;;;;;;;20.50;8.13;;;2.90;72.90;;;;;;5042578;28;20052;-65
2021/03/23 03:55:58;;;;;;;16.63;8.15;;;2.80;73.10;;;;;;5042050;28;20045;-65
2021/03/23 03:58:23;;;;;;;15.57;8.02;;;2.90;72.80;;;;;;5042128;28;20147;-65
2021/03/23 04:00:49;;;;;;;20.88;8.10;;;2.90;72.80;;;;;;5041978;28;20033;-65
2021/03/23 04:03:19;;;;;;;19.45;8.05;;;2.90;72.70;;;;;;5041789;28;20337;-65
2021/03/23 04:05:45;;;;;;;18.42;8.02;;;2.90;72.50;;;;;;5043882;28;20031;-65
2021/03/23 04:08:13;;;;;;;22.90;8.40;;;2.80;72.70;;;;;;5042022;28;20033;-65
2021/03/23 04:10:39;;;;;;;15.90;7.75;;;2.90;72.60;;;;;;5042272;28;20044;-65
2021/03/23 04:13:04;;;;;;;19.48;8.27;;;2.90;73.00;;;;;;5041832;28;20037;-65
2021/03/23 04:15:38;;;;;;;17.90;8.52;;;2.90;72.40;;;;;;5041875;28;20072;-65
2021/03/23 04:18:05;;;;;;;17.50;8.63;;;2.90;72.50;;;;;;5010157;28;20033;-65
2021/03/23 04:20:30;;;;;;;18.92;8.60;;;2.90;72.50;;;;;;5041513;28;20030;-65
2021/03/23 04:22:56;;;;;;;19.58;8.07;;;3.00;72.50;;;;;;5041970;28;20105;-65
2021/03/23 04:25:24;;;;;;;15.63;8.48;;;3.00;72.30;;;;;;5041603;28;20041;-65
2021/03/23 04:27:49;;;;;;;23.63;8.80;;;3.00;72.50;;;;;;5045139;28;20044;-65
2021/03/23 04:30:16;;;;;;;16.95;8.43;;;2.90;72.50;;;;;;5045564;28;20033;-65
2021/03/23 04:32:41;;;;;;;18.58;8.65;;;3.10;72.60;;;;;;5046833;28;20084;-65
2021/03/23 04:35:09;;;;;;;15.65;8.48;;;3.00;72.50;;;;;;5044186;28;20037;-65
2021/03/23 04:37:34;;;;;;;19.90;8.90;;;3.00;72.80;;;;;;5044012;28;20048;-65
2021/03/23 04:40:04;;;;;;;17.63;9.27;;;3.10;72.50;;;;;;5045080;28;20345;-65
2021/03/23 04:42:29;;;;;;;19.08;8.73;;;3.20;72.80;;;;;;5043063;28;20037;-65
2021/03/23 04:44:55;;;;;;;17.88;8.38;;;3.20;72.30;;;;;;5027039;28;20038;-65
2021/03/23 04:47:20;;;;;;;19.92;9.10;;;3.20;72.30;;;;;;5043028;28;20056;-65
2021/03/23 04:49:46;;;;;;;19.23;9.15;;;3.20;72.10;;;;;;5044153;28;20044;-65
2021/03/23 04:52:11;;;;;;;17.88;8.57;;;3.10;72.20;;;;;;5044785;28;20083;-65
2021/03/23 04:54:37;;;;;;;18.33;8.95;;;3.20;72.30;;;;;;5043767;28;20248;-65
2021/03/23 04:57:02;;;;;;;19.92;9.50;;;3.30;72.10;;;;;;5045654;28;20026;-65
2021/03/23 04:59:28;;;;;;;23.55;10.32;;;3.20;71.90;;;;;;5045200;28;20033;-65
2021/03/23 05:01:53;;;;;;;18.83;9.25;;;3.20;72.00;;;;;;5044779;28;20056;-65
2021/03/23 05:04:20;;;;;;;19.20;9.35;;;3.20;71.80;;;;;;5044744;28;20112;-65
2021/03/23 05:06:45;;;;;;;20.92;8.82;;;3.40;71.70;;;;;;5043807;28;20255;-65
2021/03/23 05:09:11;;;;;;;19.38;9.55;;;3.40;71.90;;;;;;5045428;28;20044;-65
2021/03/23 05:11:37;;;;;;;19.15;9.73;;;3.30;71.40;;;;;;5044548;28;20104;-65
2021/03/23 05:14:03;;;;;;;19.25;9.77;;;3.20;71.70;;;;;;5044635;28;20159;-65
2021/03/23 05:16:29;;;;;;;17.30;10.02;;;3.20;72.10;;;;;;5034342;28;20061;-65
2021/03/23 05:18:54;;;;;;;20.65;9.77;;;3.20;72.20;;;;;;5030380;28;20068;-65
2021/03/23 05:21:21;;;;;;;18.08;10.30;;;3.30;72.20;;;;;;5044543;28;20029;-65
2021/03/23 05:23:46;;;;;;;21.20;10.15;;;3.30;72.10;;;;;;5046043;28;20221;-64
2021/03/23 05:26:12;;;;;;;19.42;9.77;;;3.40;72.10;;;;;;5044228;28;20033;-65
2021/03/23 05:28:37;;;;;;;22.10;10.88;;;3.40;72.10;;;;;;5044504;28;20077;-65
2021/03/23 05:31:03;;;;;;;20.90;8.82;;;3.40;72.00;;;;;;5044134;28;20030;-65
2021/03/23 05:33:29;;;;;;;22.48;10.43;;;3.40;72.10;;;;;;5041954;28;20260;-64
2021/03/23 05:35:56;;;;;;;21.20;10.32;;;3.40;72.30;;;;;;5026231;28;20313;-64
2021/03/23 05:38:22;;;;;;;21.80;10.75;;;3.50;71.70;;;;;;5042146;28;20042;-64
2021/03/23 05:40:50;;;;;;;24.38;10.55;;;3.50;71.80;;;;;;5043271;28;20064;-64
2021/03/23 05:43:31;;;;;;;23.88;11.30;;;3.40;71.50;;;;;;5043775;28;20104;-64
2021/03/23 05:45:59;;;;;;;26.23;11.32;;;3.40;71.40;;;;;;5044033;28;20033;-65
2021/03/23 05:48:29;;;;;;;20.48;10.73;;;3.40;71.80;;;;;;5043708;28;20216;-64
2021/03/23 05:51:07;;;;;;;21.67;11.07;;;3.40;71.70;;;;;;5044328;28;20022;-64
2021/03/23 05:53:42;;;;;;;22.10;11.00;;;3.40;71.70;;;;;;5044044;28;20038;-65
2021/03/23 05:56:07;;;;;;;24.13;11.07;;;3.40;71.90;;;;;;5042887;28;20041;-64
2021/03/23 05:58:35;;;;;;;25.10;11.70;;;3.40;71.70;;;;;;5042690;28;20079;-64
2021/03/23 06:01:10;;;;;;;29.13;12.45;;;3.40;71.80;;;;;;5043844;28;20038;-64
2021/03/23 06:03:41;;;;;;;29.98;11.23;;;3.40;72.00;;;;;;5042085;28;20041;-64
2021/03/23 06:06:37;;;;;;;24.88;11.68;;;3.40;71.80;;;;;;5045429;28;20092;-64
2021/03/23 06:09:02;;;;;;;25.63;11.65;;;3.40;71.80;;;;;;5043219;28;20316;-64
2021/03/23 06:11:39;;;;;;;26.50;12.35;;;3.30;71.90;;;;;;5043756;28;20043;-64
2021/03/23 06:14:30;;;;;;;20.48;10.95;;;3.40;72.20;;;;;;5042440;28;20044;-64
2021/03/23 06:17:27;;;;;;;26.25;12.20;;;3.40;71.80;;;;;;5043834;28;20092;-65
2021/03/23 06:20:16;;;;;;;29.48;11.70;;;3.40;71.80;;;;;;5037686;28;20038;-64
2021/03/23 06:22:46;;;;;;;25.15;11.77;;;3.40;72.40;;;;;;5043231;28;20033;-65
2021/03/23 06:25:23;;;;;;;25.77;12.27;;;3.30;72.20;;;;;;5042943;28;20045;-66
2021/03/23 06:27:57;;;;;;;25.55;12.00;;;3.40;72.20;;;;;;5042039;28;20030;-64
2021/03/23 06:30:59;;;;;;;21.88;11.93;;;3.40;72.00;;;;;;5042230;28;20060;-64
2021/03/23 06:33:25;;;;;;;;;;;3.50;71.90;;;;;;5043271;28;20093;-65
2021/03/23 06:36:03;;;;;;;24.17;11.95;;;3.60;71.40;;;;;;5044793;28;19916;-64
2021/03/23 06:38:37;;;;;;;26.20;11.25;;;3.70;71.60;;;;;;5043168;28;20056;-65
2021/03/23 06:41:12;;;;;;;29.25;12.77;;;3.80;71.90;;;;;;5042777;28;20037;-64
2021/03/23 06:43:39;;;;;;;26.77;11.50;;;4.10;71.20;;;;;;5042736;28;20199;-64
2021/03/23 06:46:05;;;;;;;25.92;12.02;;;4.40;70.20;;;;;;5043029;28;20229;-64
2021/03/23 06:48:31;;;;;;;28.70;13.02;;;4.90;69.00;;;;;;5042837;28;20041;-64
2021/03/23 06:51:14;;;;;;;34.85;13.45;;;5.00;67.90;;;;;;5044507;28;20036;-64
2021/03/23 06:53:40;;;;;;;35.58;14.75;;;4.90;68.10;;;;;;5043478;28;20336;-64
2021/03/23 06:56:23;;;;;;;27.77;14.73;;;4.90;68.00;;;;;;5043047;28;20048;-64
2021/03/23 06:59:10;;;;;;;29.13;13.43;;;5.60;67.60;;;;;;5041743;28;20075;-64
2021/03/23 07:01:44;;;;;;;35.00;17.25;;;6.40;63.80;;;;;;5041480;28;20213;-64
2021/03/23 07:04:29;;;;;;;32.25;16.25;;;6.40;63.50;;;;;;5041354;28;20069;-65
2021/03/23 07:07:14;;;;;;;39.28;14.38;;;7.60;61.50;;;;;;5041513;28;20233;-65
2021/03/23 07:09:53;;;;;;;46.58;13.77;;;9.90;55.40;;;;;;5042677;28;20029;-64
2021/03/23 07:12:35;;;;;;;27.60;12.00;;;11.80;48.80;;;;;;5042229;28;20029;-64
2021/03/23 07:15:10;;;;;;;22.45;12.38;;;12.80;44.80;;;;;;5042938;28;20025;-65
2021/03/23 07:17:35;;;;;;;21.95;13.20;;;15.00;40.10;;;;;;5041541;28;20045;-65
2021/03/23 07:20:10;;;;;;;26.23;13.40;;;17.00;35.90;;;;;;5041226;28;20272;-65
2021/03/23 07:22:42;;;;;;;152.73;21.33;;;18.80;33.00;;;;;;5042102;28;20030;-65
2021/03/23 07:25:40;;;;;;;25.33;12.15;;;19.60;30.40;;;;;;5041996;28;20210;-65
2021/03/23 07:28:28;;;;;;;24.92;10.98;;;17.30;33.10;;;;;;5041153;28;20064;-65
2021/03/23 07:31:32;;;;;;;30.70;12.45;;;15.10;37.20;;;;;;5042404;28;20100;-65
2021/03/23 07:34:13;;;;;;;30.38;13.50;;;13.80;40.40;;;;;;5041063;28;20056;-64
2021/03/23 07:37:01;;;;;;;33.35;13.18;;;13.00;42.30;;;;;;5042110;28;20265;-65
2021/03/23 07:39:27;;;;;;;52.88;15.52;;;12.40;43.50;;;;;;5041012;28;20060;-65
2021/03/23 07:42:04;;;;;;;36.55;13.52;;;12.10;44.70;;;;;;5043939;28;20030;-65
2021/03/23 07:44:43;;;;;;;23.25;12.93;;;11.90;45.50;;;;;;5042439;28;20045;-64
2021/03/23 07:47:17;;;;;;;26.73;13.35;;;11.70;46.10;;;;;;5041983;28;20037;-64
2021/03/23 07:49:56;;;;;;;22.02;12.77;;;11.30;47.00;;;;;;5042323;28;20029;-65
2021/03/23 07:52:27;;;;;;;23.75;12.05;;;10.90;46.30;;;;;;5041558;28;20038;-64
2021/03/23 07:54:59;;;;;;;28.05;13.63;;;10.80;48.80;;;;;;5019774;28;20046;-64
2021/03/23 07:57:32;;;;;;;50.67;15.10;;;11.40;47.80;;;;;;5022476;28;20034;-65
2021/03/23 08:00:10;;;;;;;25.30;12.65;;;13.10;44.50;;;;;;5043831;28;20022;-65
2021/03/23 08:02:51;;;;;;;20.55;12.52;;;16.00;37.10;;;;;;5044928;28;20091;-65
2021/03/23 08:05:39;;;;;;;22.33;11.23;;;17.80;33.80;;;;;;5045071;28;20041;-65
2021/03/23 08:08:14;;;;;;;21.08;11.93;;;19.40;30.70;;;;;;5031143;28;20038;-64
2021/03/23 08:11:08;;;;;;;20.85;11.48;;;21.40;28.20;;;;;;5044613;28;20049;-65
2021/03/23 08:14:11;;;;;;;19.83;11.43;;;22.50;25.70;;;;;;5034665;28;20085;-64
2021/03/23 08:17:02;;;;;;;19.98;11.32;;;19.30;29.50;;;;;;4993126;28;20057;-64
2021/03/23 08:19:35;;;;;;;21.05;11.30;;;20.80;28.00;;;;;;5036003;28;20087;-64
2021/03/23 08:22:04;;;;;;;23.63;10.60;;;20.40;28.40;;;;;;5028942;28;20386;-64
2021/03/23 08:24:54;;;;;;;19.55;10.95;;;18.80;31.10;;;;;;5045229;28;20052;-65
2021/03/23 08:28:12;;;;;;;19.52;10.40;;;17.10;32.70;;;;;;5044236;28;20041;-65
2021/03/23 08:30:51;;;;;;;21.50;10.07;;;15.20;36.30;;;;;;5032271;28;20064;-65
2021/03/23 08:33:40;;;;;;;22.75;10.65;;;14.40;38.40;;;;;;5044293;28;20034;-64
2021/03/23 08:36:26;;;;;;;23.15;10.70;;;13.60;39.70;;;;;;5045774;28;20056;-65
2021/03/23 08:39:01;;;;;;;19.52;10.48;;;13.00;41.80;;;;;;5044969;28;20220;-64
2021/03/23 08:41:39;;;;;;;23.35;10.02;;;12.40;42.10;;;;;;5044510;28;20034;-64
2021/03/23 08:44:05;;;;;;;21.83;9.98;;;12.10;44.50;;;;;;5045057;28;20060;-64
2021/03/23 08:46:33;;;;;;;19.15;9.27;;;11.80;44.30;;;;;;5017011;28;20045;-64
2021/03/23 08:49:06;;;;;;;19.92;9.80;;;11.40;43.60;;;;;;5030675;28;20404;-64
2021/03/23 08:51:33;;;;;;;21.65;9.27;;;11.20;45.10;;;;;;5027763;28;20093;-64
2021/03/23 08:54:06;;;;;;;21.92;9.13;;;11.10;45.40;;;;;;5045974;28;20202;-64
2021/03/23 08:56:48;;;;;;;18.98;9.10;;;10.90;46.80;;;;;;5045113;28;20257;-64
2021/03/23 08:59:33;;;;;;;17.77;9.05;;;10.70;46.10;;;;;;5045090;28;20045;-65
2021/03/23 09:02:00;;;;;;;19.17;9.65;;;10.70;47.40;;;;;;5044684;28;20065;-65
2021/03/23 09:04:34;;;;;;;21.83;9.93;;;10.70;47.50;;;;;;5044805;28;20337;-64
2021/03/23 09:07:09;;;;;;;19.58;9.07;;;10.70;48.00;;;;;;5020942;28;20053;-65
2021/03/23 09:09:40;;;;;;;16.33;8.18;;;10.70;47.30;;;;;;5024833;28;20041;-65
2021/03/23 09:12:07;;;;;;;21.55;8.32;;;10.70;46.90;;;;;;5025621;28;20034;-64
2021/03/23 09:15:08;;;;;;;18.33;8.13;;;10.80;46.40;;;;;;5043915;28;20079;-64
2021/03/23 09:17:49;;;;;;;23.77;7.38;;;10.90;46.70;;;;;;5044125;28;20053;-64
2021/03/23 09:20:34;;;;;;;17.83;8.25;;;11.10;44.90;;;;;;5044172;28;20061;-64
2021/03/23 09:23:21;;;;;;;18.23;7.55;;;11.30;46.00;;;;;;5030234;28;20033;-64
2021/03/23 09:26:03;;;;;;;19.98;8.27;;;11.40;45.00;;;;;;5037153;28;20034;-64
2021/03/23 09:28:29;;;;;;;23.55;8.60;;;11.40;45.80;;;;;;5043086;28;20037;-65
2021/03/23 09:31:15;;;;;;;18.30;7.78;;;11.20;45.40;;;;;;5038634;28;20034;-64
2021/03/23 09:33:47;;;;;;;20.13;7.22;;;11.20;45.60;;;;;;5028172;28;20084;-64
2021/03/23 09:36:15;;;;;;;17.15;7.43;;;11.20;45.80;;;;;;5045210;28;20116;-64
2021/03/23 09:38:42;;;;;;;13.98;6.30;;;11.20;44.90;;;;;;5044913;28;20191;-65
2021/03/23 09:41:33;;;;;;;16.65;7.20;;;10.90;44.80;;;;;;5044386;28;20034;-64
2021/03/23 09:44:05;;;;;;;13.30;6.32;;;10.80;44.00;;;;;;5042911;28;20188;-65
2021/03/23 09:46:43;;;;;;;20.30;7.20;;;10.60;44.40;;;;;;5043942;28;20030;-65
2021/03/23 09:49:33;;;;;;;24.45;6.57;;;10.80;44.70;;;;;;5026372;28;20029;-64
2021/03/23 09:52:02;;;;;;;13.02;6.25;;;10.80;44.50;;;;;;5034393;28;20029;-64
2021/03/23 09:54:34;;;;;;;13.52;6.18;;;10.90;44.40;;;;;;5043935;28;20053;-64
2021/03/23 09:57:14;;;;;;;16.98;5.97;;;10.60;43.80;;;;;;5043623;28;20061;-65
2021/03/23 09:59:44;;;;;;;17.23;5.85;;;10.50;44.20;;;;;;5044416;28;20083;-64
2021/03/23 10:02:31;;;;;;;10.07;5.30;;;10.40;44.50;;;;;;5024913;28;20269;-64
2021/03/23 10:05:13;;;;;;;14.70;5.30;;;10.30;44.40;;;;;;5024118;28;20380;-65
2021/03/23 10:07:39;;;;;;;13.25;4.90;;;10.10;43.80;;;;;;5038437;28;20202;-65
2021/03/23 10:10:10;;;;;;;16.48;4.70;;;9.80;43.00;;;;;;5033619;28;20270;-64
2021/03/23 10:12:35;;;;;;;8.75;4.15;;;9.70;43.70;;;;;;5029979;28;20033;-65
2021/03/23 10:15:21;;;;;;;8.57;3.90;;;10.00;43.30;;;;;;5043366;28;20085;-64
2021/03/23 10:17:46;;;;;;;8.02;3.88;;;10.20;41.20;;;;;;5045111;28;20336;-64
2021/03/23 10:20:13;;;;;;;11.45;5.18;;;10.40;42.30;;;;;;5042558;28;20044;-65
2021/03/23 10:22:40;;;;;;;13.65;5.13;;;10.60;43.20;;;;;;5043479;28;20038;-65
2021/03/23 10:25:10;;;;;;;12.00;5.10;;;10.50;43.50;;;;;;5042722;28;20366;-65
2021/03/23 10:27:36;;;;;;;12.07;5.05;;;10.50;42.40;;;;;;5042426;28;20061;-65
2021/03/23 10:30:15;;;;;;;10.35;5.15;;;10.60;43.50;;;;;;5042992;28;20104;-65
2021/03/23 10:32:52;;;;;;;11.40;4.65;;;10.70;43.10;;;;;;5044853;28;20036;-65
2021/03/23 10:35:46;;;;;;;11.95;4.57;;;10.60;41.30;;;;;;5025869;28;20221;-65
2021/03/23 10:38:36;;;;;;;14.32;4.85;;;10.40;42.00;;;;;;5043379;28;20340;-65
2021/03/23 10:41:17;;;;;;;13.93;4.45;;;10.20;41.00;;;;;;5042991;28;20029;-64
2021/03/23 10:43:43;;;;;;;7.20;4.00;;;10.00;42.60;;;;;;5042563;28;20209;-65
2021/03/23 10:46:36;;;;;;;12.15;4.47;;;9.80;42.20;;;;;;5042689;28;20100;-65
2021/03/23 10:49:30;;;;;;;11.40;4.75;;;9.70;42.30;;;;;;5043035;28;20088;-64
2021/03/23 10:52:21;;;;;;;18.83;4.93;;;9.50;42.80;;;;;;5042703;28;20096;-65
2021/03/23 10:54:47;;;;;;;14.90;4.63;;;9.50;42.40;;;;;;5029178;28;20033;-65
2021/03/23 10:57:32;;;;;;;10.20;5.40;;;9.40;42.90;;;;;;5025161;28;20093;-65
2021/03/23 11:00:23;;;;;;;16.98;6.40;;;9.40;44.40;;;;;;5041438;28;20220;-65
2021/03/23 11:02:49;;;;;;;15.07;6.18;;;9.30;45.80;;;;;;5044049;28;20100;-65
2021/03/23 11:05:19;;;;;;;14.88;6.03;;;9.20;46.90;;;;;;5042333;28;20115;-64
2021/03/23 11:07:45;;;;;;;12.65;5.63;;;9.20;46.10;;;;;;5042772;28;20034;-64
2021/03/23 11:10:11;;;;;;;15.50;6.28;;;9.10;46.10;;;;;;5042718;28;20079;-64
2021/03/23 11:12:36;;;;;;;18.90;6.50;;;9.00;45.80;;;;;;5036228;28;20060;-64
2021/03/23 11:15:02;;;;;;;14.52;6.75;;;9.00;47.30;;;;;;5024469;28;20037;-64
2021/03/23 11:17:28;;;;;;;11.25;6.25;;;8.90;47.40;;;;;;5044208;28;20037;-64
2021/03/23 11:19:59;;;;;;;23.70;5.72;;;8.90;47.50;;;;;;5042791;28;20325;-64
2021/03/23 11:22:30;;;;;;;17.67;6.27;;;8.90;47.40;;;;;;5041485;28;20109;-64
2021/03/23 11:24:56;;;;;;;12.88;5.47;;;9.00;47.60;;;;;;5041543;28;20547;-64
2021/03/23 11:27:26;;;;;;;10.85;5.55;;;8.90;46.80;;;;;;5042272;28;20068;-64
2021/03/23 11:29:55;;;;;;;11.55;5.40;;;9.00;47.00;;;;;;5042552;28;20436;-65
2021/03/23 11:32:21;;;;;;;11.07;5.40;;;9.10;46.70;;;;;;5044178;28;20328;-64
2021/03/23 11:34:46;;;;;;;15.20;5.00;;;9.10;44.50;;;;;;5026823;28;20064;-64
2021/03/23 11:37:12;;;;;;;10.57;5.03;;;9.20;45.70;;;;;;5037819;28;20222;-64
2021/03/23 11:39:37;;;;;;;14.45;4.88;;;9.40;46.20;;;;;;5046527;28;20029;-64
2021/03/23 11:42:06;;;;;;;13.68;5.47;;;9.40;44.90;;;;;;5045963;28;20025;-64
2021/03/23 11:44:37;;;;;;;14.02;5.22;;;9.50;45.70;;;;;;5046773;28;20143;-64
2021/03/23 11:47:11;;;;;;;11.32;5.22;;;9.50;44.30;;;;;;5046245;28;20034;-64
2021/03/23 11:49:57;;;;;;;12.75;5.00;;;9.40;46.50;;;;;;5045333;28;20037;-64
2021/03/23 11:52:24;;;;;;;11.93;5.63;;;9.50;45.90;;;;;;5044787;28;20233;-64
2021/03/23 11:54:49;;;;;;;17.98;6.55;;;9.50;45.20;;;;;;5045870;28;20036;-64
2021/03/23 11:57:15;;;;;;;13.60;6.20;;;9.40;45.90;;;;;;5045831;28;20037;-64
2021/03/23 11:59:41;;;;;;;11.60;6.18;;;9.50;46.50;;;;;;5047648;28;20320;-64
2021/03/23 12:02:08;;;;;;;11.95;5.78;;;9.40;46.40;;;;;;5046021;28;20072;-64
2021/03/23 12:04:33;;;;;;;9.73;5.32;;;9.40;46.20;;;;;;5046084;28;20389;-64
2021/03/23 12:07:37;;;;;;;13.90;5.55;;;9.40;46.00;;;;;;5045564;28;20083;-64
2021/03/23 12:10:14;;;;;;;17.42;5.68;;;9.30;45.90;;;;;;5015115;28;20034;-64
2021/03/23 12:12:47;;;;;;;12.63;5.18;;;9.20;46.50;;;;;;5045500;28;20037;-65
2021/03/23 12:15:26;;;;;;;11.07;5.30;;;9.30;45.90;;;;;;5044428;28;20076;-64
2021/03/23 12:17:53;;;;;;;11.95;5.45;;;9.30;46.50;;;;;;5028941;28;20093;-64
2021/03/23 12:20:23;;;;;;;11.63;5.18;;;9.40;46.60;;;;;;5046161;28;20343;-64
2021/03/23 12:22:50;;;;;;;12.50;5.18;;;9.40;45.70;;;;;;5044283;28;20038;-64
2021/03/23 12:25:17;;;;;;;9.32;5.25;;;9.40;45.50;;;;;;5045335;28;20049;-65
2021/03/23 12:27:44;;;;;;;14.60;5.60;;;9.40;45.90;;;;;;5045351;28;20033;-64
2021/03/23 12:30:10;;;;;;;13.25;5.13;;;9.40;46.70;;;;;;5045191;28;20041;-64
2021/03/23 12:32:36;;;;;;;15.07;5.32;;;9.50;45.20;;;;;;5047102;28;20024;-65
2021/03/23 12:35:08;;;;;;;17.23;5.15;;;9.60;45.80;;;;;;5045264;28;20034;-64
2021/03/23 12:37:34;;;;;;;10.90;4.80;;;9.60;45.60;;;;;;5045163;28;20033;-65
2021/03/23 12:39:59;;;;;;;10.38;4.80;;;9.70;44.70;;;;;;5044947;28;20332;-64
2021/03/23 12:42:26;;;;;;;14.13;4.80;;;9.80;45.80;;;;;;5043770;28;20097;-66
2021/03/23 12:44:51;;;;;;;11.32;4.40;;;9.70;44.70;;;;;;5044797;28;20256;-66
2021/03/23 12:47:17;;;;;;;11.18;4.07;;;9.80;45.30;;;;;;5026174;28;20017;-65
2021/03/23 12:49:43;;;;;;;9.20;3.97;;;9.90;44.90;;;;;;5040495;28;20037;-65
2021/03/23 12:52:09;;;;;;;8.48;4.63;;;9.80;43.20;;;;;;5044791;28;20047;-66
2021/03/23 12:54:46;;;;;;;10.50;5.32;;;9.90;45.10;;;;;;5021290;28;20348;-65
2021/03/23 12:57:18;;;;;;;12.50;5.13;;;9.80;43.70;;;;;;5027920;28;20039;-66
2021/03/23 12:59:44;;;;;;;17.85;6.50;;;9.70;45.30;;;;;;5046464;28;20026;-65
2021/03/23 13:02:11;;;;;;;13.30;6.65;;;9.60;45.50;;;;;;5043685;28;20451;-66
2021/03/23 13:04:37;;;;;;;12.75;7.05;;;9.60;47.10;;;;;;5043466;28;20084;-65